• Join FlightAware (Why Join?)
  • Login
  • US Flag 
05:58PM EDT


 

Airport Tracker/Info


-or-


 

Live Flight TrackerFlight Track Log ✈ SWA1969 ✈ 09-Apr-2013 ✈ KOKC - KMDW

Flight Track Log - Related Links

Times and Time Zones

All times are in EDT time to prevent confusion due to time zone crossing. See the SWA1969 flight status page for this flight to view local times or setup timezone preferences in your user account.

Time Position Orientation Groundspeed Altitude Reporting Facility
EDT Latitude Longitude Course Direction KTS MPH feet Rate Location/Type
08:47AM 35.3436 -97.5636 145° Southeast 195 224 5,800  Level Fort Worth Center
08:50AM 35.4492 -97.3586 58° Northeast 323 372 12,900 3,180 Climbing Kansas City Center
08:51AM 35.5033 -97.2436 60° Northeast 373 429 16,700 3,540 Climbing Kansas City Center
08:52AM 35.5614 -97.1250 59° Northeast 393 452 20,100 3,300 Climbing Kansas City Center
08:53AM 35.6225 -96.9975 59° Northeast 418 481 23,600 3,420 Climbing Kansas City Center
08:54AM 35.6964 -96.8425 60° Northeast 432 497 27,100 2,760 Climbing Kansas City Center
08:55AM 35.7594 -96.7111 59° Northeast 439 505 29,300 2,040 Climbing Kansas City Center
08:56AM 35.8217 -96.5706 61° Northeast 453 521 31,300 1,980 Climbing Kansas City Center
08:57AM 35.8817 -96.4236 63° Northeast 468 539 33,500 1,920 Climbing Kansas City Center
08:58AM 35.9425 -96.2775 63° Northeast 474 545 35,300 1,620 Climbing Kansas City Center
08:59AM 36.0042 -96.1283 63° Northeast 480 552 36,900 1,680 Climbing Kansas City Center
09:00AM 36.0772 -95.9467 64° Northeast 489 563 38,900 1,680 Climbing Kansas City Center
09:01AM 36.1367 -95.7964 64° Northeast 489 563 40,400 1,020 Climbing Kansas City Center
09:02AM 36.2117 -95.6583 56° Northeast 491 565 41,000 240 Climbing Kansas City Center
09:03AM 36.2850 -95.5197 57° Northeast 486 559 41,000  Level Kansas City Center
09:04AM 36.3569 -95.3769 58° Northeast 488 562 41,000  Level Kansas City Center
09:05AM 36.4289 -95.2375 57° Northeast 484 557 41,000  Level Kansas City Center
09:06AM 36.5111 -95.0786 57° Northeast 481 554 41,000  Level Kansas City Center
09:07AM 36.5833 -94.9392 57° Northeast 481 554 41,000  Level Kansas City Center
09:08AM 36.6544 -94.8014 57° Northeast 477 549 41,000  Level Kansas City Center
09:09AM 36.7244 -94.6633 58° Northeast 474 545 41,000  Level Kansas City Center
09:10AM 36.7950 -94.5258 57° Northeast 472 543 41,000  Level Kansas City Center
09:11AM 36.8850 -94.4092 46° Northeast 473 544 41,000  Level Kansas City Center
09:12AM 36.9831 -94.3031 41° Northeast 468 539 41,000  Level Kansas City Center
09:13AM 37.0986 -94.1711 42° Northeast 469 540 41,000  Level Kansas City Center
09:14AM 37.1869 -94.0736 41° Northeast 465 535 41,000  Level Kansas City Center
09:15AM 37.2836 -93.9636 42° Northeast 466 536 41,000  Level Kansas City Center
09:16AM 37.3783 -93.8547 42° Northeast 461 531 41,000  Level Kansas City Center
09:17AM 37.4739 -93.7444 42° Northeast 462 532 41,000  Level Kansas City Center
09:19AM 37.5869 -93.6125 43° Northeast 461 531 41,000  Level Kansas City Center
09:20AM 37.6803 -93.5033 43° Northeast 457 526 41,000  Level Kansas City Center
09:21AM 37.7744 -93.3942 42° Northeast 456 525 41,000  Level Kansas City Center
09:22AM 37.8692 -93.2839 43° Northeast 459 528 41,000  Level Kansas City Center
09:23AM 37.9642 -93.1728 43° Northeast 461 531 41,000  Level Kansas City Center
09:24AM 38.0600 -93.0592 43° Northeast 464 534 41,000  Level Kansas City Center
09:25AM 38.1569 -92.9464 42° Northeast 468 539 41,000  Level Kansas City Center
09:26AM 38.2508 -92.8344 43° Northeast 463 533 41,000  Level Kansas City Center
09:27AM 38.3472 -92.7194 43° Northeast 465 535 41,000  Level Kansas City Center
09:28AM 38.4419 -92.6042 44° Northeast 466 536 41,000  Level Kansas City Center
09:29AM 38.5375 -92.4908 43° Northeast 465 535 41,000  Level Kansas City Center
09:30AM 38.6503 -92.3519 44° Northeast 465 535 41,000  Level Kansas City Center
09:31AM 38.7439 -92.2381 43° Northeast 462 532 41,000  Level Kansas City Center
09:32AM 38.8372 -92.1264 43° Northeast 458 527 41,000  Level Kansas City Center
09:33AM 38.9297 -92.0142 43° Northeast 457 526 41,000  Level Kansas City Center
09:34AM 39.0208 -91.8997 44° Northeast 455 524 41,000  Level Kansas City Center
09:35AM 39.1139 -91.7878 43° Northeast 457 526 41,000  Level Kansas City Center
09:36AM 39.2125 -91.6664 44° Northeast 456 525 41,000 -480 Level Kansas City Center
09:37AM 39.3050 -91.5511 44° Northeast 459 528 40,100 -960 Descending Kansas City Center
09:38AM 39.4006 -91.4331 44° Northeast 467 537 39,100 -960 Descending Kansas City Center
09:39AM 39.4956 -91.3131 44° Northeast 473 544 38,200 -960 Descending Kansas City Center
09:40AM 39.5889 -91.1964 44° Northeast 470 541 37,200 -1,080 Descending Kansas City Center
09:41AM 39.7022 -91.0550 44° Northeast 469 540 36,100 -1,080 Descending Kansas City Center
09:42AM 39.7994 -90.9317 44° Northeast 476 548 35,100 -540 Descending Kansas City Center
09:43AM 39.8958 -90.8094 44° Northeast 482 555 35,000 -720 Descending Kansas City Center
09:44AM 39.9906 -90.6881 44° Northeast 480 552 33,700 -1,800 Descending Kansas City Center
09:45AM 40.0856 -90.5669 44° Northeast 478 550 31,300 -1,320 Descending Kansas City Center
09:46AM 40.1806 -90.4442 45° Northeast 479 551 31,000 -240 Descending Kansas City Center
09:47AM 40.2192 -90.3958 44° Northeast 483 556 31,000  Level Chicago Center
09:48AM 40.3142 -90.2714 45° Northeast 484 557 31,000 -120 Level Chicago Center
09:49AM 40.4269 -90.1242 45° Northeast 480 552 30,800 -720 Descending Chicago Center
09:50AM 40.5044 -90.0228 45° Northeast 456 525 29,600 -1,800 Descending Chicago Center
09:51AM 40.6114 -89.8825 45° Northeast 454 522 27,100 -2,400 Descending Chicago Center
09:52AM 40.6944 -89.7608 48° Northeast 453 521 24,700 -2,400 Descending Chicago Center
09:53AM 40.7544 -89.6206 61° Northeast 441 507 22,300 -2,400 Descending Chicago Center
09:54AM 40.8169 -89.4761 60° Northeast 426 490 19,800 -2,460 Descending Chicago Center
09:55AM 40.8736 -89.3450 60° Northeast 413 475 17,300 -1,560 Descending Chicago Center
09:56AM 40.9294 -89.2133 61° Northeast 412 474 16,700 -840 Descending Chicago Center
09:57AM 40.9850 -89.0817 61° Northeast 410 472 15,700 -1,320 Descending Chicago Center
09:58AM 41.0536 -88.9456 56° Northeast 398 458 14,000 -1,800 Descending Chicago Center
09:59AM 41.1369 -88.8450 42° Northeast 403 464 12,100 -1,860 Descending Chicago Center
10:00AM 41.2106 -88.7497 44° Northeast 379 436 10,200 -1,560 Descending Chicago Center
10:02AM 41.3333 -88.5833 45° Northeast 323 372 7,700 -1,320 Descending Chicago TRACON
10:02AM 41.3447 -88.5778 20° North 328 377 7,500 -1,260 Descending Chicago Center
10:03AM 41.4183 -88.4833 44° Northeast 311 358 6,100 -960 Descending Chicago Center
10:04AM 41.4758 -88.4047 46° Northeast 299 344 5,600 -840 Descending Chicago Center
10:05AM 41.5114 -88.3047 65° Northeast 299 344 4,400 -780 Descending Chicago Center
10:06AM 41.5467 -88.2069 64° Northeast 294 338 4,000 -240 Descending Chicago Center
10:07AM 41.5825 -88.1103 64° Northeast 290 334 4,000  Level Chicago Center
10:08AM 41.6178 -88.0139 64° Northeast 288 331 4,000  Level Chicago Center
10:09AM 41.6489 -87.9278 64° Northeast 272 313 4,000 -540 Level Chicago Center
10:10AM 41.6956 -87.8644 45° Northeast 253 291 2,900 -1,200 Descending Chicago Center
10:11AM 41.7167 -87.8333 48° Northeast 214 246 2,200 -1,080 Descending Chicago TRACON
10:12AM 41.7667 -87.7833 37° Northeast 152 175 1,300 -900 Descending Chicago TRACON
10:15AM 41.7833 -87.7500 North  Level FlightAware Approximate